createdAt,value
2019-01-19T00:01:44.457Z,101756.39
2019-01-19T00:04:42.217Z,101748.06
2019-01-19T00:07:38.926Z,101750.92
2019-01-19T00:10:40.067Z,101749.67
2019-01-19T00:13:29.754Z,101744.81
2019-01-19T00:16:32.436Z,101744.61
2019-01-19T00:19:52.050Z,101737.55
2019-01-19T00:22:31.818Z,101741.35
2019-01-19T00:25:37.522Z,101741.47
2019-01-19T00:28:23.620Z,101739.36
2019-01-19T00:31:15.868Z,101735.33
2019-01-19T00:34:10.693Z,101737.16
2019-01-19T00:36:44.894Z,101730.08
2019-01-19T00:39:59.341Z,101731.52
2019-01-19T00:42:36.174Z,101730.83
2019-01-19T00:45:35.456Z,101729.38
2019-01-19T00:48:21.738Z,101732.56
2019-01-19T00:50:59.082Z,101732.75
2019-01-19T00:53:44.699Z,101736.02
2019-01-19T00:56:27.920Z,101740.22
2019-01-19T00:59:13.876Z,101745.43
2019-01-19T01:02:04.412Z,101744.12
2019-01-19T01:05:00.315Z,101741.07
2019-01-19T01:07:59.142Z,101743.81
2019-01-19T01:10:45.410Z,101741.97
2019-01-19T01:13:28.445Z,101743.34
2019-01-19T01:16:35.530Z,101747.38
2019-01-19T01:19:15.161Z,101740.43
2019-01-19T01:22:27.203Z,101740.73
2019-01-19T01:25:01.474Z,101746.26
2019-01-19T01:27:59.359Z,101748.69
2019-01-19T01:30:44.951Z,101746.49
2019-01-19T01:33:46.118Z,101744.10
2019-01-19T01:36:41.494Z,101747.95
2019-01-19T01:39:25.155Z,101742.75
2019-01-19T01:42:26.430Z,101744.59
2019-01-19T01:45:12.045Z,101744.27
2019-01-19T01:48:03.703Z,101747.25
2019-01-19T01:50:52.648Z,101753.70
2019-01-19T01:53:50.589Z,101745.86
2019-01-19T01:56:20.129Z,101747.71
2019-01-19T01:59:09.043Z,101751.80
2019-01-19T02:01:55.747Z,101750.47
2019-01-19T02:04:38.825Z,101743.64
2019-01-19T02:07:27.960Z,101746.88
2019-01-19T02:10:21.773Z,101747.89
2019-01-19T02:13:21.776Z,101746.98
2019-01-19T02:16:18.156Z,101747.38
2019-01-19T02:19:23.741Z,101748.63
2019-01-19T02:21:58.184Z,101744.38
2019-01-19T02:24:53.602Z,101747.02
2019-01-19T02:27:39.435Z,101743.68
2019-01-19T02:30:34.648Z,101738.87
2019-01-19T02:33:11.692Z,101743.02
2019-01-19T02:36:02.167Z,101739.27
2019-01-19T02:38:41.871Z,101739.80
2019-01-19T02:41:24.743Z,101734.22
2019-01-19T02:44:22.973Z,101737.84
2019-01-19T02:47:21.618Z,101733.41
2019-01-19T02:50:17.754Z,101741.95
2019-01-19T02:53:21.791Z,101746.48
2019-01-19T02:55:59.109Z,101734.94
2019-01-19T02:58:36.239Z,101733.34
2019-01-19T03:01:42.515Z,101738.08
2019-01-19T03:04:19.697Z,101734.67
2019-01-19T03:07:08.997Z,101739.72
2019-01-19T03:10:05.225Z,101729.11
2019-01-19T03:13:07.995Z,101735.58
2019-01-19T03:16:09.107Z,101734.25
2019-01-19T03:18:52.211Z,101726.19
2019-01-19T03:21:50.651Z,101726.27
2019-01-19T03:25:03.729Z,101731.31
2019-01-19T03:28:00.726Z,101730.80
2019-01-19T03:30:55.369Z,101729.06
2019-01-19T03:33:35.366Z,101726.88
2019-01-19T03:39:42.394Z,101730.75
2019-01-19T03:42:36.743Z,101731.83
2019-01-19T03:45:38.068Z,101725.02
2019-01-19T03:48:23.323Z,101721.70
2019-01-19T03:51:25.697Z,101728.98
2019-01-19T03:54:02.598Z,101727.17
2019-01-19T03:56:39.603Z,101718.04
2019-01-19T03:59:13.798Z,101721.66
2019-01-19T04:01:56.910Z,101718.67
2019-01-19T04:04:52.028Z,101719.57
2019-01-19T04:07:46.821Z,101723.69
2019-01-19T04:10:32.841Z,101723.00
2019-01-19T04:13:18.871Z,101723.16
2019-01-19T04:16:01.870Z,101720.40
2019-01-19T04:19:08.077Z,101723.52
2019-01-19T04:21:45.083Z,101721.94
2019-01-19T04:24:24.854Z,101725.44
2019-01-19T04:26:54.392Z,101717.94
2019-01-19T04:29:23.874Z,101717.55
2019-01-19T04:31:53.439Z,101727.36
2019-01-19T04:34:23.591Z,101724.39
2019-01-19T04:36:53.553Z,101727.03
2019-01-19T04:39:42.415Z,101720.55
2019-01-19T04:42:12.383Z,101718.55
2019-01-19T04:44:41.871Z,101720.23
2019-01-19T04:47:11.742Z,101724.38
2019-01-19T04:49:41.199Z,101723.16
2019-01-19T04:52:10.717Z,101722.82
2019-01-19T04:54:40.188Z,101729.19
2019-01-19T04:57:09.714Z,101727.55
2019-01-19T04:59:39.293Z,101725.69
2019-01-19T05:02:08.834Z,101728.89
2019-01-19T05:04:38.280Z,101727.34
2019-01-19T05:07:07.750Z,101725.84
2019-01-19T05:09:37.615Z,101720.05
2019-01-19T05:12:07.106Z,101729.39
2019-01-19T05:14:36.616Z,101726.33
2019-01-19T05:17:06.134Z,101726.13
2019-01-19T05:19:35.598Z,101723.29
2019-01-19T05:22:05.086Z,101719.24
2019-01-19T05:24:34.608Z,101721.69
2019-01-19T05:27:04.116Z,101724.76
2019-01-19T05:29:33.628Z,101719.11
2019-01-19T05:32:03.194Z,101720.84
2019-01-19T05:34:32.655Z,101718.80
2019-01-19T05:37:02.130Z,101719.82
2019-01-19T05:39:31.652Z,101716.13
2019-01-19T05:42:01.107Z,101720.30
2019-01-19T05:44:30.594Z,101719.91
2019-01-19T05:47:00.100Z,101720.30
2019-01-19T05:49:29.578Z,101712.13
2019-01-19T05:51:59.094Z,101711.11
2019-01-19T05:54:29.215Z,101713.14
2019-01-19T05:56:58.713Z,101713.86
2019-01-19T05:59:28.205Z,101723.98
2019-01-19T06:01:58.310Z,101717.47
2019-01-19T06:04:27.778Z,101718.33
2019-01-19T06:06:57.262Z,101716.05
2019-01-19T06:09:26.858Z,101723.04
2019-01-19T06:11:56.360Z,101722.09
2019-01-19T06:14:25.870Z,101724.77
2019-01-19T06:16:55.810Z,101720.45
2019-01-19T06:19:25.794Z,101722.85
2019-01-19T06:21:57.156Z,101724.67
2019-01-19T06:24:26.682Z,101718.55
2019-01-19T06:26:56.135Z,101728.22
2019-01-19T06:29:25.648Z,101728.14
2019-01-19T06:31:55.264Z,101730.88
2019-01-19T06:34:24.737Z,101722.18
2019-01-19T06:36:55.135Z,101729.55
2019-01-19T06:39:25.253Z,101726.34
2019-01-19T06:41:54.725Z,101725.86
2019-01-19T06:44:24.218Z,101721.63
2019-01-19T06:46:53.768Z,101719.74
2019-01-19T06:49:23.270Z,101724.52
2019-01-19T06:51:52.747Z,101720.37
2019-01-19T06:54:22.448Z,101724.12
2019-01-19T06:56:51.937Z,101728.13
2019-01-19T06:59:21.453Z,101727.34
2019-01-19T07:01:51.047Z,101729.86
2019-01-19T07:04:20.977Z,101722.95
2019-01-19T07:06:50.491Z,101718.02
2019-01-19T07:09:20.022Z,101723.11
2019-01-19T07:11:49.978Z,101725.94
2019-01-19T07:14:19.512Z,101719.51
2019-01-19T07:16:49.086Z,101725.68
2019-01-19T07:19:18.613Z,101732.34
2019-01-19T07:21:48.089Z,101731.18
2019-01-19T07:24:18.242Z,101727.66
2019-01-19T07:26:47.739Z,101734.01
2019-01-19T07:29:17.255Z,101735.89
2019-01-19T07:31:46.774Z,101737.30
2019-01-19T07:34:16.305Z,101741.76
2019-01-19T07:36:45.768Z,101745.05
2019-01-19T07:39:15.291Z,101740.28
2019-01-19T07:41:44.767Z,101747.66
2019-01-19T07:44:14.283Z,101746.41
2019-01-19T07:46:44.213Z,101754.70
2019-01-19T07:49:13.696Z,101750.98
2019-01-19T07:51:43.210Z,101751.66
2019-01-19T07:54:12.706Z,101753.32
2019-01-19T07:56:42.215Z,101756.83
2019-01-19T07:59:11.684Z,101758.84
2019-01-19T08:01:41.191Z,101758.97
2019-01-19T08:04:10.660Z,101761.59
2019-01-19T08:06:40.203Z,101761.12
2019-01-19T08:09:09.839Z,101757.88
2019-01-19T08:11:39.310Z,101765.85
2019-01-19T08:14:08.782Z,101766.83
2019-01-19T08:16:38.331Z,101763.22
2019-01-19T08:19:07.827Z,101758.27
2019-01-19T08:21:37.332Z,101760.58
2019-01-19T08:24:06.877Z,101762.25
2019-01-19T08:26:36.387Z,101760.94
2019-01-19T08:29:05.877Z,101764.53
2019-01-19T08:31:35.656Z,101766.09
2019-01-19T08:34:05.215Z,101759.09
2019-01-19T08:36:34.886Z,101758.31
2019-01-19T08:39:06.645Z,101762.89
2019-01-19T08:41:36.115Z,101759.33
2019-01-19T08:44:05.758Z,101763.42
2019-01-19T08:46:35.292Z,101760.58
2019-01-19T08:49:04.825Z,101770.53
2019-01-19T08:51:34.295Z,101770.86
2019-01-19T08:54:03.923Z,101772.05
2019-01-19T08:56:33.415Z,101772.17
2019-01-19T08:59:02.892Z,101769.14
2019-01-19T09:01:32.490Z,101775.91
2019-01-19T09:04:01.985Z,101776.50
2019-01-19T09:06:31.596Z,101775.19
2019-01-19T09:09:01.174Z,101771.97
2019-01-19T09:11:30.677Z,101760.02
2019-01-19T09:14:00.144Z,101769.75
2019-01-19T09:16:30.059Z,101775.25
2019-01-19T09:18:59.555Z,101767.62
2019-01-19T09:21:29.146Z,101773.93
2019-01-19T09:23:59.784Z,101757.39
2019-01-19T09:26:29.297Z,101769.80
2019-01-19T09:28:58.813Z,101764.83
2019-01-19T09:31:28.345Z,101772.79
2019-01-19T09:33:57.825Z,101767.61
2019-01-19T09:36:27.460Z,101773.28
2019-01-19T09:38:57.437Z,101774.77
2019-01-19T09:41:26.935Z,101775.21
2019-01-19T09:43:56.448Z,101780.58
2019-01-19T09:46:25.972Z,101773.75
2019-01-19T09:48:55.549Z,101776.03
2019-01-19T09:51:25.027Z,101768.48
2019-01-19T09:53:54.519Z,101775.39
2019-01-19T09:56:24.008Z,101771.70
2019-01-19T09:58:53.496Z,101772.05
2019-01-19T10:01:23.248Z,101768.78
2019-01-19T10:03:52.785Z,101770.00
2019-01-19T10:06:22.275Z,101768.47
2019-01-19T10:08:52.095Z,101766.78
2019-01-19T10:11:21.612Z,101765.50
2019-01-19T10:13:51.285Z,101764.16
2019-01-19T10:16:20.927Z,101758.10
2019-01-19T10:18:50.471Z,101761.70
2019-01-19T10:21:20.325Z,101758.88
2019-01-19T10:23:50.483Z,101756.34
2019-01-19T10:26:19.947Z,101762.25
2019-01-19T10:28:50.339Z,101759.70
2019-01-19T10:31:19.858Z,101759.55
2019-01-19T10:33:49.350Z,101759.16
2019-01-19T10:36:18.856Z,101754.84
2019-01-19T10:38:48.440Z,101754.91
2019-01-19T10:41:17.961Z,101756.33
2019-01-19T10:43:47.467Z,101754.22
2019-01-19T10:46:17.047Z,101754.77
2019-01-19T10:48:46.503Z,101758.05
2019-01-19T10:51:15.986Z,101765.65
2019-01-19T10:53:45.496Z,101759.34
2019-01-19T10:56:14.963Z,101771.00
2019-01-19T10:58:44.463Z,101764.31
2019-01-19T11:01:13.966Z,101762.78
2019-01-19T11:03:43.471Z,101755.34
2019-01-19T11:06:12.949Z,101741.83
2019-01-19T11:08:42.615Z,101739.84
2019-01-19T11:11:12.139Z,101730.28
2019-01-19T11:13:41.646Z,101733.98
2019-01-19T11:16:11.163Z,101735.47
2019-01-19T11:18:40.673Z,101740.00
2019-01-19T11:21:10.182Z,101735.73
2019-01-19T11:23:40.092Z,101730.45
2019-01-19T11:26:09.870Z,101721.85
2019-01-19T11:28:39.352Z,101727.59
2019-01-19T11:31:09.045Z,101718.16
2019-01-19T11:33:38.541Z,101711.89
2019-01-19T11:36:08.050Z,101712.23
2019-01-19T11:38:37.581Z,101712.94
2019-01-19T11:41:07.057Z,101710.95
2019-01-19T11:43:36.556Z,101704.98
2019-01-19T11:46:06.452Z,101702.23
2019-01-19T11:48:36.089Z,101700.47
2019-01-19T11:51:05.660Z,101700.78
2019-01-19T11:53:35.292Z,101700.57
2019-01-19T11:56:11.931Z,101693.98
2019-01-19T11:58:36.126Z,101700.33
2019-01-19T12:01:07.314Z,101696.20
2019-01-19T12:03:37.106Z,101700.02
2019-01-19T12:06:06.705Z,101691.23
2019-01-19T12:08:36.621Z,101685.09
2019-01-19T12:11:06.306Z,101685.94
2019-01-19T12:13:35.867Z,101689.91
2019-01-19T12:16:05.554Z,101689.36
2019-01-19T12:18:35.080Z,101691.25
2019-01-19T12:21:04.642Z,101687.70
2019-01-19T12:23:34.341Z,101692.33
2019-01-19T12:26:03.824Z,101688.64
2019-01-19T12:28:33.322Z,101684.81
2019-01-19T12:31:03.178Z,101677.61
2019-01-19T12:33:32.681Z,101684.00
2019-01-19T12:36:02.181Z,101678.88
2019-01-19T12:38:31.724Z,101674.76
2019-01-19T12:41:01.218Z,101672.59
2019-01-19T12:43:30.689Z,101665.19
2019-01-19T12:46:00.313Z,101670.18
2019-01-19T12:48:30.062Z,101668.91
2019-01-19T12:50:59.671Z,101666.04
2019-01-19T12:53:30.175Z,101662.71
2019-01-19T12:55:59.656Z,101669.67
2019-01-19T12:58:29.159Z,101659.12
2019-01-19T13:00:58.778Z,101669.31
2019-01-19T13:03:28.263Z,101660.98
2019-01-19T13:06:08.582Z,101651.88
2019-01-19T13:08:38.116Z,101655.52
2019-01-19T13:11:42.596Z,101653.84
2019-01-19T13:14:12.085Z,101656.48
2019-01-19T13:17:05.543Z,101646.20
2019-01-19T13:19:54.022Z,101645.21
2019-01-19T13:22:37.193Z,101641.66
2019-01-19T13:25:16.901Z,101636.09
2019-01-19T13:28:14.853Z,101636.23
2019-01-19T13:31:03.708Z,101633.89
2019-01-19T13:33:57.499Z,101628.76
2019-01-19T13:36:55.448Z,101636.20
2019-01-19T13:39:29.729Z,101632.82
2019-01-19T13:42:23.335Z,101631.22
2019-01-19T13:45:34.081Z,101626.83
2019-01-19T13:48:33.936Z,101625.43
2019-01-19T13:51:20.019Z,101624.62
2019-01-19T13:54:00.153Z,101623.95
2019-01-19T13:57:02.256Z,101623.60
2019-01-19T14:00:02.863Z,101618.65
2019-01-19T14:03:26.149Z,101624.22
2019-01-19T14:06:03.136Z,101620.11
2019-01-19T14:09:02.873Z,101621.48
2019-01-19T14:12:04.387Z,101610.74
2019-01-19T14:14:44.195Z,101611.08
2019-01-19T14:17:27.416Z,101609.03
2019-01-19T14:20:19.741Z,101608.31
2019-01-19T14:23:22.561Z,101601.89
2019-01-19T14:26:28.126Z,101603.25
2019-01-19T14:29:30.956Z,101597.27
2019-01-19T14:32:20.198Z,101595.69
2019-01-19T14:35:15.410Z,101606.94
2019-01-19T14:38:24.351Z,101606.17
2019-01-19T14:41:16.474Z,101602.30
2019-01-19T14:44:10.972Z,101597.48
2019-01-19T14:47:00.222Z,101601.61
2019-01-19T14:49:46.026Z,101602.56
2019-01-19T14:52:23.500Z,101599.34
2019-01-19T14:55:00.358Z,101598.11
2019-01-19T14:57:43.094Z,101599.05
2019-01-19T15:00:38.521Z,101591.28
2019-01-19T15:03:20.904Z,101593.20
2019-01-19T15:06:12.738Z,101593.41
2019-01-19T15:09:09.423Z,101592.30
2019-01-19T15:12:26.033Z,101601.39
2019-01-19T15:15:06.079Z,101592.70
2019-01-19T15:17:54.941Z,101594.41
2019-01-19T15:20:37.610Z,101595.88
2019-01-19T15:23:18.280Z,101585.84
2019-01-19T15:26:09.843Z,101588.41
2019-01-19T15:29:13.404Z,101590.70
2019-01-19T15:32:15.547Z,101590.67
2019-01-19T15:35:21.181Z,101585.00
2019-01-19T15:38:10.217Z,101586.61
2019-01-19T15:40:59.510Z,101591.44
2019-01-19T15:44:08.388Z,101590.39
2019-01-19T15:47:05.706Z,101592.30
2019-01-19T15:50:03.123Z,101592.19
2019-01-19T15:52:51.996Z,101591.80
2019-01-19T15:55:38.665Z,101594.41
2019-01-19T15:58:43.131Z,101590.72
2019-01-19T16:01:57.731Z,101593.50
2019-01-19T16:05:02.193Z,101590.50
2019-01-19T16:07:44.599Z,101594.10
2019-01-19T16:10:47.040Z,101595.06
2019-01-19T16:13:23.673Z,101595.48
2019-01-19T16:16:33.397Z,101594.93
2019-01-19T16:19:25.078Z,101592.47
2019-01-19T16:22:38.629Z,101597.42
2019-01-19T16:25:21.453Z,101595.48
2019-01-19T16:28:25.907Z,101597.38
2019-01-19T16:31:30.177Z,101591.18
2019-01-19T16:34:40.263Z,101586.44
2019-01-19T16:37:33.376Z,101588.93
2019-01-19T16:40:22.876Z,101597.11
2019-01-19T16:42:57.618Z,101600.23
2019-01-19T16:45:55.097Z,101585.87
2019-01-19T16:48:49.924Z,101593.05
2019-01-19T16:51:47.015Z,101596.15
2019-01-19T16:54:27.306Z,101590.64
2019-01-19T16:57:23.637Z,101594.16
2019-01-19T17:00:07.848Z,101591.33
2019-01-19T17:02:56.956Z,101597.65
2019-01-19T17:05:50.035Z,101598.97
2019-01-19T17:08:36.024Z,101595.17
2019-01-19T17:11:27.819Z,101592.69
2019-01-19T17:14:29.561Z,101598.45
2019-01-19T17:17:40.000Z,101596.16
2019-01-19T17:20:25.916Z,101587.69
2019-01-19T17:23:20.860Z,101594.28
2019-01-19T17:26:17.569Z,101584.17
2019-01-19T17:29:09.801Z,101591.23
2019-01-19T17:31:49.351Z,101590.30
2019-01-19T17:34:40.660Z,101592.20
2019-01-19T17:37:23.543Z,101584.82
2019-01-19T17:40:27.024Z,101589.91
2019-01-19T17:43:07.075Z,101584.45
2019-01-19T17:46:01.905Z,101593.17
2019-01-19T17:48:51.389Z,101588.20
2019-01-19T17:51:43.341Z,101588.20
2019-01-19T17:54:47.618Z,101587.53
2019-01-19T17:57:41.011Z,101585.41
2019-01-19T18:00:17.941Z,101581.69
2019-01-19T18:03:03.778Z,101591.34
2019-01-19T18:05:44.043Z,101586.37
2019-01-19T18:08:29.227Z,101582.18
2019-01-19T18:11:20.218Z,101582.08
2019-01-19T18:14:09.337Z,101587.81
2019-01-19T18:17:19.755Z,101581.12
2019-01-19T18:20:40.559Z,101585.52
2019-01-19T18:23:30.121Z,101578.26
2019-01-19T18:26:21.019Z,101577.02
2019-01-19T18:29:28.821Z,101585.31
2019-01-19T18:32:11.867Z,101579.20
2019-01-19T18:35:01.244Z,101576.14
2019-01-19T18:37:35.455Z,101578.25
2019-01-19T18:40:32.394Z,101580.73
2019-01-19T18:43:36.112Z,101578.55
2019-01-19T18:46:15.906Z,101581.45
2019-01-19T18:49:26.069Z,101584.98
2019-01-19T18:52:12.400Z,101583.54
2019-01-19T18:55:13.338Z,101583.52
2019-01-19T18:58:19.682Z,101586.61
2019-01-19T19:01:12.922Z,101580.87
2019-01-19T19:04:01.669Z,101570.17
2019-01-19T19:07:29.706Z,101576.11
2019-01-19T19:10:32.419Z,101575.84
2019-01-19T19:13:18.490Z,101572.95
2019-01-19T19:16:19.011Z,101579.80
2019-01-19T19:19:21.909Z,101575.70
2019-01-19T19:22:16.717Z,101579.49
2019-01-19T19:25:22.728Z,101578.50
2019-01-19T19:28:23.827Z,101581.60
2019-01-19T19:31:12.754Z,101583.72
2019-01-19T19:33:56.274Z,101575.30
2019-01-19T19:36:44.981Z,101573.40
2019-01-19T19:39:36.640Z,101579.91
2019-01-19T19:42:28.435Z,101575.13
2019-01-19T19:45:17.535Z,101576.45
2019-01-19T19:48:23.638Z,101579.41
2019-01-19T19:51:35.918Z,101581.42
2019-01-19T19:54:06.922Z,101581.10
2019-01-19T19:56:35.247Z,101584.94
2019-01-19T19:59:04.989Z,101580.05
2019-01-19T20:01:34.490Z,101588.44
2019-01-19T20:04:04.141Z,101581.10
2019-01-19T20:06:33.664Z,101585.22
2019-01-19T20:09:03.437Z,101582.77
2019-01-19T20:11:33.597Z,101581.60
2019-01-19T20:14:03.619Z,101580.58
2019-01-19T20:16:33.125Z,101577.81
2019-01-19T20:19:04.513Z,101580.10
2019-01-19T20:21:34.033Z,101575.21
2019-01-19T20:24:03.775Z,101576.44
2019-01-19T20:26:33.267Z,101577.20
2019-01-19T20:29:02.928Z,101572.38
2019-01-19T20:31:32.419Z,101570.70
2019-01-19T20:34:02.375Z,101572.97
2019-01-19T20:36:32.031Z,101573.48
2019-01-19T20:39:01.615Z,101576.33
2019-01-19T20:41:31.113Z,101575.44
2019-01-19T20:44:00.816Z,101565.70
2019-01-19T20:46:30.595Z,101561.12
2019-01-19T20:49:00.073Z,101562.67
2019-01-19T20:51:29.634Z,101567.06
2019-01-19T20:53:59.199Z,101562.16
2019-01-19T20:56:28.655Z,101568.20
2019-01-19T20:58:58.425Z,101571.09
2019-01-19T21:01:27.933Z,101575.59
2019-01-19T21:03:57.403Z,101568.44
2019-01-19T21:06:26.994Z,101575.23
2019-01-19T21:08:56.510Z,101575.92
2019-01-19T21:11:25.971Z,101575.53
2019-01-19T21:13:55.477Z,101577.75
2019-01-19T21:16:24.933Z,101573.70
2019-01-19T21:18:54.611Z,101565.48
2019-01-19T21:21:24.329Z,101567.48
2019-01-19T21:23:56.990Z,101564.59
2019-01-19T21:26:26.459Z,101566.39
2019-01-19T21:28:55.972Z,101562.17
2019-01-19T21:31:25.437Z,101559.72
2019-01-19T21:33:55.055Z,101563.88
2019-01-19T21:36:24.589Z,101567.59
2019-01-19T21:38:54.081Z,101564.95
2019-01-19T21:41:23.570Z,101567.82
2019-01-19T21:43:53.594Z,101559.94
2019-01-19T21:46:23.128Z,101566.73
2019-01-19T21:48:52.605Z,101561.15
2019-01-19T21:51:22.145Z,101562.31
2019-01-19T21:53:51.628Z,101562.18
2019-01-19T21:56:21.105Z,101562.27
2019-01-19T21:58:50.660Z,101559.30
2019-01-19T22:01:20.147Z,101559.50
2019-01-19T22:03:50.144Z,101554.59
2019-01-19T22:06:19.784Z,101558.12
2019-01-19T22:08:49.269Z,101561.84
2019-01-19T22:11:18.771Z,101559.42
2019-01-19T22:13:48.276Z,101563.62
2019-01-19T22:16:17.774Z,101551.23
2019-01-19T22:18:47.245Z,101564.67
2019-01-19T22:21:16.812Z,101567.39
2019-01-19T22:23:46.291Z,101563.06
2019-01-19T22:26:17.443Z,101570.62
2019-01-19T22:28:47.569Z,101567.62
2019-01-19T22:31:17.048Z,101571.92
2019-01-19T22:33:46.533Z,101577.23
2019-01-19T22:36:16.047Z,101569.84
2019-01-19T22:38:45.542Z,101570.29
2019-01-19T22:41:15.031Z,101573.68
2019-01-19T22:43:44.545Z,101572.40
2019-01-19T22:46:14.044Z,101576.63
2019-01-19T22:48:43.540Z,101573.52
2019-01-19T22:51:13.548Z,101581.20
2019-01-19T22:53:43.008Z,101580.15
2019-01-19T22:56:12.905Z,101573.62
2019-01-19T22:58:42.423Z,101574.61
2019-01-19T23:01:20.356Z,101571.73
2019-01-19T23:03:49.862Z,101574.83
2019-01-19T23:06:19.354Z,101570.61
2019-01-19T23:08:48.849Z,101572.92
2019-01-19T23:11:19.072Z,101569.28
2019-01-19T23:13:48.603Z,101574.70
2019-01-19T23:16:18.466Z,101574.75
2019-01-19T23:18:47.994Z,101575.44
2019-01-19T23:21:17.485Z,101573.78
2019-01-19T23:23:46.993Z,101569.04
2019-01-19T23:26:18.338Z,101569.37
2019-01-19T23:28:47.807Z,101569.73
2019-01-19T23:31:17.385Z,101564.73
2019-01-19T23:33:46.977Z,101558.25
2019-01-19T23:36:16.484Z,101553.81
2019-01-19T23:38:45.966Z,101558.94
2019-01-19T23:41:15.517Z,101562.28
2019-01-19T23:43:45.445Z,101560.95
2019-01-19T23:46:14.977Z,101557.34
2019-01-19T23:48:44.495Z,101556.05
2019-01-19T23:51:13.999Z,101560.77
2019-01-19T23:53:43.675Z,101555.84
2019-01-19T23:56:13.375Z,101553.89
2019-01-19T23:58:42.886Z,101553.34
